Time;durP1;ratioP1;P1;durP2;ratioP2;P2;SDS_P1;SDS_P2;PMS_P1;PMS_P2;Temp;Humidity;BMP_temperature;BMP_pressure;BME280_temperature;BME280_humidity;BME280_pressure;Samples;Min_cycle;Max_cycle;Signal;HPM_P1;HPM_P2
2021/11/05 00:02:24;;;;;;;10.10;7.95;;;;;;;8.55;96.62;99216.69;5072375;28;20299;-72
2021/11/05 00:04:51;;;;;;;12.00;8.70;;;;;;;8.40;98.24;99225.56;5071040;28;20285;-73
2021/11/05 00:07:18;;;;;;;11.73;8.57;;;;;;;8.52;99.41;99224.03;5063436;28;20205;-73
2021/11/05 00:09:44;;;;;;;11.07;8.10;;;;;;;8.52;100.00;99227.59;5056617;28;20279;-74
2021/11/05 00:12:11;;;;;;;9.52;7.82;;;;;;;8.54;100.00;99228.34;5068491;28;20205;-74
2021/11/05 00:14:41;;;;;;;11.68;9.27;;;;;;;8.58;99.48;99236.25;5071491;28;20234;-75
2021/11/05 00:17:08;;;;;;;12.15;9.30;;;;;;;8.61;98.43;99236.06;5071314;28;20199;-72
2021/11/05 00:19:34;;;;;;;15.82;10.25;;;;;;;8.36;100.00;99229.34;5055520;28;20639;-72
2021/11/05 00:22:01;;;;;;;13.45;9.63;;;;;;;8.45;100.00;99234.22;5061838;28;20188;-72
2021/11/05 00:24:28;;;;;;;12.38;8.95;;;;;;;8.41;99.79;99232.69;5055385;28;20207;-75
2021/11/05 00:26:54;;;;;;;13.05;8.30;;;;;;;8.23;100.00;99242.56;5060423;28;20307;-74
2021/11/05 00:29:21;;;;;;;11.20;8.73;;;;;;;8.20;100.00;99244.53;5074949;28;20214;-73
2021/11/05 00:31:49;;;;;;;10.63;8.20;;;;;;;8.02;100.00;99244.56;5073046;28;20284;-73
2021/11/05 00:34:17;;;;;;;11.13;9.10;;;;;;;8.18;100.00;99244.63;5055724;28;20198;-74
2021/11/05 00:36:44;;;;;;;10.27;8.80;;;;;;;8.14;100.00;99246.63;5066114;28;20649;-72
2021/11/05 00:39:11;;;;;;;14.65;9.10;;;;;;;8.46;100.00;99244.03;5075209;28;20293;-72
2021/11/05 00:41:37;;;;;;;12.30;8.77;;;;;;;8.28;100.00;99251.22;5070899;28;20664;-73
2021/11/05 00:44:05;;;;;;;11.55;8.80;;;;;;;8.52;100.00;99249.06;5063055;28;20538;-73
2021/11/05 00:46:31;;;;;;;9.52;8.30;;;;;;;8.71;99.97;99245.34;5070449;28;20282;-73
2021/11/05 00:49:00;;;;;;;10.35;8.73;;;;;;;8.63;99.56;99247.59;5072840;28;20272;-73
2021/11/05 00:51:26;;;;;;;11.85;7.95;;;;;;;8.65;100.00;99254.59;5077252;28;20199;-73
2021/11/05 00:53:53;;;;;;;10.13;8.57;;;;;;;8.70;100.00;99255.19;5060493;28;20189;-74
2021/11/05 00:56:20;;;;;;;13.27;10.20;;;;;;;8.67;98.97;99259.91;5054990;28;20188;-73
2021/11/05 00:58:46;;;;;;;10.25;8.57;;;;;;;8.65;99.41;99254.59;5063623;28;20220;-73
2021/11/05 01:01:13;;;;;;;10.82;8.55;;;;;;;8.46;99.57;99257.44;5058456;28;20222;-73
2021/11/05 01:03:40;;;;;;;9.60;8.52;;;;;;;8.68;100.00;99261.59;5055177;28;20194;-73
2021/11/05 01:06:08;;;;;;;9.90;8.32;;;;;;;8.71;99.17;99258.78;5061046;28;20248;-73
2021/11/05 01:08:34;;;;;;;10.07;8.35;;;;;;;8.84;98.04;99265.19;5073390;28;20254;-73
2021/11/05 01:11:01;;;;;;;8.85;7.65;;;;;;;8.85;97.50;99261.53;5061903;28;20199;-73
2021/11/05 01:13:28;;;;;;;8.75;7.82;;;;;;;8.84;97.98;99265.19;5062603;28;20203;-73
2021/11/05 01:15:54;;;;;;;9.27;7.88;;;;;;;8.83;98.13;99268.81;5074289;28;20225;-74
2021/11/05 01:18:21;;;;;;;9.57;8.57;;;;;;;8.72;97.41;99263.19;5070175;28;20533;-73
2021/11/05 01:20:49;;;;;;;9.95;8.82;;;;;;;8.76;98.09;99275.47;5061178;28;20204;-73
2021/11/05 01:23:19;;;;;;;17.83;13.00;;;;;;;8.63;99.42;99274.44;5054781;28;20268;-74
2021/11/05 01:25:45;;;;;;;11.07;8.77;;;;;;;8.39;100.00;99290.00;5065340;28;20211;-74
2021/11/05 01:28:12;;;;;;;10.93;9.20;;;;;;;8.29;100.00;99284.28;5074284;28;20640;-74
2021/11/05 01:30:39;;;;;;;13.02;9.73;;;;;;;8.64;100.00;99284.19;5069335;28;20203;-74
2021/11/05 01:33:07;;;;;;;12.45;9.05;;;;;;;8.55;100.00;99285.59;5073703;28;20190;-74
2021/11/05 01:35:35;;;;;;;11.30;10.10;;;;;;;8.50;100.00;99291.22;5060303;28;20282;-74
2021/11/05 01:38:03;;;;;;;10.68;8.63;;;;;;;8.50;100.00;99288.53;5073973;28;20309;-74
2021/11/05 01:40:31;;;;;;;11.95;10.00;;;;;;;8.50;100.00;99293.91;5073924;28;20193;-74
2021/11/05 01:43:01;;;;;;;12.30;9.73;;;;;;;8.56;100.00;99284.63;5071029;28;20616;-74
2021/11/05 01:45:28;;;;;;;12.73;10.65;;;;;;;8.49;100.00;99294.81;5074418;28;20544;-74
2021/11/05 01:47:55;;;;;;;10.68;8.63;;;;;;;8.52;100.00;99289.31;5066993;28;20206;-74
2021/11/05 01:50:22;;;;;;;13.30;9.73;;;;;;;8.69;100.00;99287.50;5073682;28;20193;-73
2021/11/05 01:52:50;;;;;;;16.05;9.65;;;;;;;8.71;100.00;99290.97;5056457;28;20208;-74
2021/11/05 01:55:16;;;;;;;11.35;9.88;;;;;;;8.95;99.79;99291.41;5053999;28;20197;-74
2021/11/05 01:57:45;;;;;;;13.88;9.70;;;;;;;8.86;100.00;99291.94;5072496;28;20195;-74
2021/11/05 02:00:14;;;;;;;13.50;10.30;;;;;;;9.06;98.21;99299.72;5057191;28;20219;-74
2021/11/05 02:02:42;;;;;;;12.93;9.05;;;;;;;9.17;96.56;99301.81;5055626;28;20273;-74
2021/11/05 02:05:09;;;;;;;12.25;10.15;;;;;;;8.84;97.66;99296.53;5060064;28;20199;-74
2021/11/05 02:07:37;;;;;;;11.75;9.30;;;;;;;8.61;100.00;99292.44;5055232;28;20552;-74
2021/11/05 02:10:05;;;;;;;12.65;9.50;;;;;;;8.75;100.00;99297.88;5054090;28;20187;-74
2021/11/05 02:12:33;;;;;;;13.63;9.85;;;;;;;8.57;100.00;99305.16;5054709;28;20191;-73
2021/11/05 02:15:02;;;;;;;11.77;9.90;;;;;;;8.45;100.00;99297.75;5056842;28;20323;-74
2021/11/05 02:17:29;;;;;;;12.82;9.75;;;;;;;8.65;100.00;99297.53;5072051;28;20277;-74
2021/11/05 02:19:58;;;;;;;12.55;10.10;;;;;;;8.78;100.00;99308.47;5062190;28;20213;-73
2021/11/05 02:22:26;;;;;;;13.43;10.70;;;;;;;8.68;100.00;99312.59;5053793;28;20653;-73
2021/11/05 02:24:54;;;;;;;14.07;10.10;;;;;;;8.90;100.00;99315.84;5068204;28;20616;-74
2021/11/05 02:27:21;;;;;;;12.75;10.20;;;;;;;9.01;100.00;99314.38;5071012;28;20193;-74
2021/11/05 02:29:47;;;;;;;12.80;10.82;;;;;;;9.01;99.13;99319.75;5057172;28;20181;-73
2021/11/05 02:32:14;;;;;;;16.80;10.38;;;;;;;8.88;99.80;99319.56;5070596;28;20206;-74
2021/11/05 02:34:41;;;;;;;12.73;9.60;;;;;;;8.84;100.00;99326.94;5068901;28;20568;-73
2021/11/05 02:37:08;;;;;;;12.95;10.45;;;;;;;8.80;100.00;99330.75;5068586;28;20202;-73
2021/11/05 02:39:36;;;;;;;12.02;10.10;;;;;;;8.90;100.00;99333.78;5069197;28;20208;-73
2021/11/05 02:42:03;;;;;;;12.75;9.80;;;;;;;8.81;100.00;99342.34;5059948;28;20199;-74
2021/11/05 02:44:29;;;;;;;10.93;9.15;;;;;;;8.81;100.00;99339.66;5053962;28;20656;-74
2021/11/05 02:46:57;;;;;;;11.20;9.70;;;;;;;8.62;100.00;99345.16;5070993;28;20568;-74
2021/11/05 02:49:24;;;;;;;13.35;10.57;;;;;;;8.61;100.00;99341.59;5055683;28;20195;-74
2021/11/05 02:51:51;;;;;;;12.90;10.50;;;;;;;8.63;100.00;99346.88;5053311;28;20644;-74
2021/11/05 02:54:18;;;;;;;14.93;11.55;;;;;;;8.62;100.00;99347.84;5067476;28;20336;-73
2021/11/05 02:56:47;;;;;;;14.73;10.50;;;;;;;8.69;100.00;99355.47;5070122;28;20615;-73
2021/11/05 02:59:13;;;;;;;13.82;10.73;;;;;;;8.72;100.00;99359.81;5058143;28;20295;-74
2021/11/05 03:01:40;;;;;;;12.38;9.88;;;;;;;8.58;100.00;99359.69;5054001;28;20193;-74
2021/11/05 03:04:09;;;;;;;14.80;11.65;;;;;;;8.66;100.00;99358.34;5052968;28;20550;-73
2021/11/05 03:06:37;;;;;;;12.70;10.73;;;;;;;8.80;100.00;99362.09;5066939;28;20227;-72
2021/11/05 03:09:08;;;;;;;14.70;10.77;;;;;;;8.83;100.00;99365.47;5063870;28;20278;-74
2021/11/05 03:11:35;;;;;;;15.60;10.75;;;;;;;8.83;100.00;99361.91;5053467;28;20187;-72
2021/11/05 03:14:03;;;;;;;13.80;10.93;;;;;;;8.97;100.00;99364.69;5062881;28;20250;-74
2021/11/05 03:16:30;;;;;;;12.40;10.25;;;;;;;8.81;100.00;99372.72;5057925;28;20281;-73
2021/11/05 03:18:56;;;;;;;12.73;10.40;;;;;;;8.85;100.00;99385.03;5064742;28;20297;-72
2021/11/05 03:21:23;;;;;;;12.05;10.07;;;;;;;8.83;100.00;99384.25;5058857;28;20186;-73
2021/11/05 03:23:50;;;;;;;13.82;10.38;;;;;;;8.98;100.00;99382.56;5067320;28;20209;-73
2021/11/05 03:26:17;;;;;;;14.15;10.48;;;;;;;8.73;100.00;99380.34;5072070;28;20193;-73
2021/11/05 03:28:43;;;;;;;12.85;9.90;;;;;;;8.97;100.00;99381.66;5070273;28;20278;-74
2021/11/05 03:31:11;;;;;;;14.75;10.38;;;;;;;9.03;100.00;99385.00;5068396;28;20190;-73
2021/11/05 03:33:38;;;;;;;13.13;10.82;;;;;;;9.02;100.00;99394.84;5067577;28;20192;-73
2021/11/05 03:36:05;;;;;;;15.00;11.40;;;;;;;8.87;100.00;99406.44;5068299;28;20192;-73
2021/11/05 03:38:31;;;;;;;17.38;11.52;;;;;;;8.82;100.00;99400.44;5070912;28;20226;-74
2021/11/05 03:40:58;;;;;;;16.13;11.13;;;;;;;8.64;100.00;99404.97;5072239;28;20220;-75
2021/11/05 03:43:24;;;;;;;16.05;11.65;;;;;;;8.57;100.00;99412.50;5071306;28;20610;-73
2021/11/05 03:45:51;;;;;;;19.00;11.63;;;;;;;8.80;100.00;99419.34;5070147;28;20188;-73
2021/11/05 03:48:19;;;;;;;15.32;11.77;;;;;;;8.71;100.00;99422.50;5071919;28;20191;-74
2021/11/05 03:50:45;;;;;;;14.40;11.60;;;;;;;8.87;100.00;99419.88;5070715;28;20761;-72
2021/11/05 03:53:12;;;;;;;15.05;11.27;;;;;;;8.82;100.00;99421.91;5072080;28;20282;-74
2021/11/05 03:55:40;;;;;;;15.07;11.27;;;;;;;8.66;100.00;99425.44;5071761;28;20213;-75
2021/11/05 03:58:07;;;;;;;17.15;12.25;;;;;;;8.77;100.00;99430.22;5071711;28;20187;-75
2021/11/05 04:00:34;;;;;;;18.00;11.13;;;;;;;8.72;100.00;99433.16;5076454;28;20711;-74
2021/11/05 04:03:00;;;;;;;15.52;11.95;;;;;;;8.73;100.00;99434.03;5064911;28;20194;-74
2021/11/05 04:05:28;;;;;;;17.17;12.52;;;;;;;8.59;100.00;99441.94;5057186;28;20204;-74
2021/11/05 04:07:55;;;;;;;17.52;11.05;;;;;;;8.87;100.00;99452.09;5070647;28;20200;-73
2021/11/05 04:10:22;;;;;;;15.00;10.98;;;;;;;9.07;100.00;99449.19;5071548;28;20191;-73
2021/11/05 04:12:48;;;;;;;15.25;11.93;;;;;;;9.04;100.00;99451.16;5074882;28;20185;-73
2021/11/05 04:15:15;;;;;;;15.50;11.60;;;;;;;8.91;100.00;99470.63;5069448;28;20589;-74
2021/11/05 04:17:41;;;;;;;16.98;11.57;;;;;;;8.97;100.00;99462.22;5060377;28;20279;-74
2021/11/05 04:20:10;;;;;;;16.67;11.77;;;;;;;9.20;100.00;99473.56;5075059;28;20243;-74
2021/11/05 04:22:38;;;;;;;14.32;10.77;;;;;;;8.84;100.00;99462.97;5073792;28;20194;-74
2021/11/05 04:25:06;;;;;;;15.25;12.00;;;;;;;8.80;100.00;99473.03;5076125;28;20540;-73
2021/11/05 04:27:33;;;;;;;18.83;13.18;;;;;;;8.88;100.00;99475.28;5071742;28;20206;-73
2021/11/05 04:29:59;;;;;;;17.48;12.00;;;;;;;8.80;100.00;99481.06;5062648;28;20547;-75
2021/11/05 04:32:26;;;;;;;21.20;13.10;;;;;;;8.63;100.00;99475.72;5056917;28;20286;-73
2021/11/05 04:34:53;;;;;;;17.85;13.10;;;;;;;8.63;100.00;99481.94;5074368;28;20640;-73
2021/11/05 04:37:20;;;;;;;18.38;13.55;;;;;;;8.68;100.00;99492.44;5069270;28;20193;-74
2021/11/05 04:39:48;;;;;;;15.32;12.73;;;;;;;8.90;100.00;99497.56;5067240;28;20217;-73
2021/11/05 04:42:14;;;;;;;20.90;13.30;;;;;;;8.65;100.00;99492.63;5074227;28;20294;-73
2021/11/05 04:44:41;;;;;;;18.75;13.30;;;;;;;8.74;100.00;99506.41;5073119;28;20202;-73
2021/11/05 04:47:07;;;;;;;18.45;12.93;;;;;;;8.99;100.00;99507.81;5069064;28;20560;-74
2021/11/05 04:49:34;;;;;;;20.92;14.02;;;;;;;8.82;100.00;99502.44;5068570;28;20180;-73
2021/11/05 04:52:01;;;;;;;19.83;14.25;;;;;;;8.77;100.00;99518.81;5073329;28;20187;-72
2021/11/05 04:54:28;;;;;;;18.80;13.35;;;;;;;8.90;100.00;99522.59;5075199;28;20270;-75
2021/11/05 04:56:56;;;;;;;19.00;14.07;;;;;;;8.80;100.00;99524.03;5075064;28;20195;-73
2021/11/05 04:59:22;;;;;;;19.83;14.38;;;;;;;8.85;100.00;99530.03;5056102;28;20221;-74
2021/11/05 05:01:49;;;;;;;20.67;14.70;;;;;;;8.72;100.00;99535.16;5060744;28;20218;-72
2021/11/05 05:04:16;;;;;;;20.30;13.82;;;;;;;8.68;100.00;99538.06;5065222;28;20616;-74
2021/11/05 05:06:42;;;;;;;21.02;15.35;;;;;;;8.87;100.00;99538.88;5056110;28;20196;-72
2021/11/05 05:09:10;;;;;;;20.40;14.55;;;;;;;8.52;100.00;99546.94;5062492;28;20195;-74
2021/11/05 05:11:37;;;;;;;20.05;14.73;;;;;;;8.40;100.00;99544.84;5057360;28;20214;-74
2021/11/05 05:14:05;;;;;;;22.33;15.48;;;;;;;8.65;100.00;99551.66;5060795;28;20231;-74
2021/11/05 05:16:32;;;;;;;18.67;14.27;;;;;;;8.69;100.00;99548.75;5057021;28;20544;-74
2021/11/05 05:18:58;;;;;;;23.10;15.68;;;;;;;8.60;100.00;99551.91;5071701;28;20514;-74
2021/11/05 05:21:25;;;;;;;20.17;15.40;;;;;;;8.67;100.00;99557.81;5064012;28;20190;-74
2021/11/05 05:23:51;;;;;;;20.35;13.80;;;;;;;8.76;100.00;99544.78;5070463;28;20205;-74
2021/11/05 05:26:18;;;;;;;21.48;14.80;;;;;;;8.76;100.00;99557.34;5074726;28;20190;-74
2021/11/05 05:28:44;;;;;;;24.92;15.18;;;;;;;8.65;100.00;99559.72;5073115;28;20202;-74
2021/11/05 05:31:12;;;;;;;21.70;15.73;;;;;;;8.53;100.00;99566.56;5069427;28;20193;-73
2021/11/05 05:33:42;;;;;;;21.92;15.73;;;;;;;8.41;100.00;99572.53;5068107;28;20248;-73
2021/11/05 05:36:09;;;;;;;24.30;14.95;;;;;;;8.39;100.00;99571.72;5072841;28;20647;-73
2021/11/05 05:38:37;;;;;;;22.55;15.32;;;;;;;8.51;100.00;99574.69;5066005;28;20195;-74
2021/11/05 05:41:04;;;;;;;25.73;16.05;;;;;;;8.50;100.00;99567.59;5058015;28;20217;-72
2021/11/05 05:43:31;;;;;;;21.80;15.73;;;;;;;8.67;100.00;99576.63;5066300;28;20855;-73
2021/11/05 05:45:57;;;;;;;27.48;16.23;;;;;;;8.75;100.00;99572.59;5066436;28;20211;-74
2021/11/05 05:48:25;;;;;;;25.80;16.73;;;;;;;8.76;100.00;99586.88;5069564;28;20201;-74
2021/11/05 05:50:52;;;;;;;23.55;16.55;;;;;;;8.86;100.00;99590.81;5072138;28;20190;-74
2021/11/05 05:53:21;;;;;;;22.45;15.70;;;;;;;8.89;100.00;99601.41;5068986;28;20186;-74
2021/11/05 05:55:47;;;;;;;25.48;15.48;;;;;;;8.83;100.00;99600.88;5071801;28;20506;-74
2021/11/05 05:58:14;;;;;;;20.88;15.90;;;;;;;8.77;100.00;99602.91;5062080;28;20195;-74
2021/11/05 06:00:41;;;;;;;21.20;15.13;;;;;;;8.80;100.00;99609.94;5057570;28;20558;-75
2021/11/05 06:03:07;;;;;;;21.75;15.88;;;;;;;8.58;100.00;99607.47;5063613;28;20960;-74
2021/11/05 06:05:35;;;;;;;23.92;16.20;;;;;;;8.52;100.00;99613.13;5073941;28;20194;-74
2021/11/05 06:08:02;;;;;;;24.75;15.25;;;;;;;8.64;100.00;99617.00;5065555;28;20201;-73
2021/11/05 06:10:28;;;;;;;22.77;16.13;;;;;;;8.60;100.00;99620.81;5068982;28;20895;-74
2021/11/05 06:12:55;;;;;;;23.02;15.75;;;;;;;8.62;100.00;99624.31;5054596;28;21403;-74
2021/11/05 06:15:21;;;;;;;23.73;16.25;;;;;;;8.40;100.00;99636.06;5054267;28;20221;-73
2021/11/05 06:17:48;;;;;;;25.60;16.30;;;;;;;8.54;100.00;99635.41;5062589;28;20287;-73
2021/11/05 06:20:15;;;;;;;25.73;16.67;;;;;;;8.42;100.00;99636.88;5073377;28;20202;-73
2021/11/05 06:22:43;;;;;;;20.60;14.18;;;;;;;8.59;100.00;99638.72;5073105;28;20186;-74
2021/11/05 06:25:10;;;;;;;25.02;16.73;;;;;;;8.44;100.00;99637.66;5058895;28;20206;-74
2021/11/05 06:27:36;;;;;;;24.58;17.88;;;;;;;8.45;100.00;99639.38;5054208;28;20230;-74
2021/11/05 06:30:04;;;;;;;25.58;16.85;;;;;;;8.49;100.00;99646.34;5071049;28;20291;-75
2021/11/05 06:32:30;;;;;;;23.85;15.63;;;;;;;8.47;100.00;99642.88;5072609;28;20230;-74
2021/11/05 06:34:57;;;;;;;25.80;17.15;;;;;;;8.34;100.00;99653.31;5072664;28;20285;-74
2021/11/05 06:37:24;;;;;;;23.65;17.48;;;;;;;8.33;100.00;99653.38;5073052;28;20191;-73
2021/11/05 06:39:52;;;;;;;25.52;17.70;;;;;;;8.26;100.00;99660.00;5071413;28;20684;-74
2021/11/05 06:42:21;;;;;;;25.45;18.13;;;;;;;8.24;100.00;99661.88;5066701;28;20202;-73
2021/11/05 06:44:48;;;;;;;28.80;19.05;;;;;;;8.16;100.00;99664.91;5068766;28;20548;-73
2021/11/05 06:47:15;;;;;;;27.25;18.90;;;;;;;8.13;100.00;99682.00;5072539;28;20294;-74
2021/11/05 06:49:42;;;;;;;27.33;18.63;;;;;;;8.12;100.00;99674.91;5072840;28;20232;-74
2021/11/05 06:52:09;;;;;;;25.00;17.88;;;;;;;8.24;100.00;99680.66;5072576;28;20222;-74
2021/11/05 06:54:38;;;;;;;26.30;17.70;;;;;;;8.09;100.00;99685.78;5072608;28;20202;-74
2021/11/05 06:57:06;;;;;;;26.98;16.52;;;;;;;8.02;100.00;99692.38;5072481;28;20285;-75
2021/11/05 06:59:33;;;;;;;27.40;17.42;;;;;;;8.12;100.00;99691.00;5072693;28;20301;-75
2021/11/05 07:02:00;;;;;;;26.30;17.27;;;;;;;7.94;100.00;99702.59;5072495;28;20201;-74
2021/11/05 07:04:26;;;;;;;32.10;18.40;;;;;;;8.10;100.00;99705.44;5072444;28;20193;-73
2021/11/05 07:06:53;;;;;;;26.83;17.67;;;;;;;8.12;100.00;99700.88;5072538;28;20207;-73
2021/11/05 07:09:20;;;;;;;24.75;17.02;;;;;;;8.09;100.00;99704.53;5072638;28;20272;-74
2021/11/05 07:11:47;;;;;;;29.60;18.52;;;;;;;8.07;100.00;99714.50;5072757;28;20566;-72
2021/11/05 07:14:15;;;;;;;26.52;18.75;;;;;;;8.27;100.00;99710.00;5067542;28;20314;-73
2021/11/05 07:16:43;;;;;;;31.30;18.73;;;;;;;8.19;100.00;99717.56;5057960;28;20272;-73
2021/11/05 07:19:09;;;;;;;25.25;17.42;;;;;;;8.24;100.00;99726.25;5078566;28;20189;-74
2021/11/05 07:21:36;;;;;;;27.17;18.33;;;;;;;8.26;100.00;99732.41;5071004;28;20301;-73
2021/11/05 07:24:04;;;;;;;26.42;18.27;;;;;;;8.14;100.00;99740.09;5070083;28;20343;-74
2021/11/05 07:26:35;;;;;;;28.80;18.98;;;;;;;8.30;100.00;99742.06;5077967;28;20193;-74
2021/11/05 07:29:03;;;;;;;26.05;17.98;;;;;;;8.42;100.00;99748.69;5067862;28;20617;-73
2021/11/05 07:31:31;;;;;;;28.90;20.17;;;;;;;8.47;100.00;99754.72;5062409;28;20234;-73
2021/11/05 07:33:58;;;;;;;28.60;18.75;;;;;;;8.55;100.00;99758.78;5059695;28;20198;-73
2021/11/05 07:36:25;;;;;;;26.55;18.70;;;;;;;8.57;100.00;99758.72;5056274;28;20244;-74
2021/11/05 07:38:52;;;;;;;24.17;18.35;;;;;;;8.71;100.00;99775.03;5071480;28;20189;-72
2021/11/05 07:41:19;;;;;;;28.48;18.55;;;;;;;8.56;100.00;99784.66;5071142;28;20794;-74
2021/11/05 07:43:46;;;;;;;27.30;17.65;;;;;;;8.80;100.00;99787.16;5068830;28;20250;-74
2021/11/05 07:46:13;;;;;;;28.23;19.55;;;;;;;8.77;100.00;99789.97;5070357;28;20206;-73
2021/11/05 07:48:41;;;;;;;25.20;17.08;;;;;;;8.59;100.00;99793.53;5071082;28;20278;-73
2021/11/05 07:51:08;;;;;;;26.90;17.00;;;;;;;8.70;100.00;99805.50;5071276;28;20187;-73
2021/11/05 07:53:34;;;;;;;27.88;17.85;;;;;;;8.81;100.00;99807.66;5070369;28;20214;-72
2021/11/05 07:56:01;;;;;;;28.50;19.38;;;;;;;8.75;100.00;99816.00;5070958;28;20195;-74
2021/11/05 07:58:28;;;;;;;27.40;17.75;;;;;;;8.80;98.75;99819.38;5067937;28;20642;-75
2021/11/05 08:00:54;;;;;;;26.08;17.13;;;;;;;8.68;99.57;99822.63;5059786;28;20219;-74
2021/11/05 08:03:21;;;;;;;25.65;16.95;;;;;;;8.66;99.42;99821.81;5052355;28;20195;-73
2021/11/05 08:05:49;;;;;;;27.73;18.08;;;;;;;8.98;99.69;99825.69;5051820;28;20206;-74
2021/11/05 08:08:16;;;;;;;31.00;18.23;;;;;;;9.24;96.24;99842.34;5051745;28;20203;-74
2021/11/05 08:10:43;;;;;;;24.05;16.13;;;;;;;9.33;94.63;99836.53;5059371;28;20681;-74
2021/11/05 08:13:11;;;;;;;22.92;15.52;;;;;;;9.43;92.45;99845.00;5070650;28;20289;-73
2021/11/05 08:15:37;;;;;;;25.10;16.75;;;;;;;9.01;94.88;99846.16;5070371;28;20248;-74
2021/11/05 08:18:04;;;;;;;28.67;17.33;;;;;;;9.05;96.59;99859.34;5065248;28;20680;-74
2021/11/05 08:20:31;;;;;;;26.40;18.17;;;;;;;9.22;96.18;99861.22;5068576;28;20213;-74
2021/11/05 08:22:59;;;;;;;26.05;17.67;;;;;;;9.26;93.83;99862.81;5069730;28;20597;-74
2021/11/05 08:25:27;;;;;;;28.63;18.95;;;;;;;9.30;93.98;99869.78;5063524;28;20676;-72
2021/11/05 08:27:54;;;;;;;24.67;16.65;;;;;;;9.39;92.64;99876.53;5069532;28;20202;-75
2021/11/05 08:30:22;;;;;;;30.85;16.85;;;;;;;9.64;91.52;99883.41;5066630;28;20195;-73
2021/11/05 08:32:51;;;;;;;25.17;16.33;;;;;;;9.46;91.06;99885.16;5052775;28;20192;-73
2021/11/05 08:35:22;;;;;;;27.00;16.90;;;;;;;9.46;91.73;99890.56;5056063;28;20227;-73
2021/11/05 08:37:49;;;;;;;23.63;17.60;;;;;;;9.68;90.41;99893.91;5056631;28;20885;-74
2021/11/05 08:40:17;;;;;;;28.17;17.40;;;;;;;9.87;88.74;99893.00;5067915;28;20211;-73
2021/11/05 08:42:45;;;;;;;23.20;17.48;;;;;;;9.90;88.87;99907.13;5069849;28;20567;-75
2021/11/05 08:45:12;;;;;;;24.10;16.35;;;;;;;10.26;87.06;99902.66;5066762;28;20553;-73
2021/11/05 08:47:40;;;;;;;24.80;17.40;;;;;;;10.31;84.20;99898.81;5054200;28;20192;-75
2021/11/05 08:50:11;;;;;;;27.90;18.65;;;;;;;10.19;83.92;99905.66;5063139;28;20285;-73
2021/11/05 08:52:39;;;;;;;23.48;16.88;;;;;;;9.96;85.07;99906.84;5058794;28;20197;-73
2021/11/05 08:55:07;;;;;;;27.00;17.27;;;;;;;10.04;85.90;99911.84;5071120;28;20543;-74
2021/11/05 08:57:36;;;;;;;29.63;19.05;;;;;;;10.44;84.75;99918.72;5074767;28;20290;-74
2021/11/05 09:00:06;;;;;;;24.98;17.23;;;;;;;10.26;83.30;99916.97;5072544;28;20634;-73
2021/11/05 09:02:33;;;;;;;23.83;15.55;;;;;;;10.16;84.69;99916.59;5073431;28;20208;-73
2021/11/05 09:04:59;;;;;;;23.48;16.48;;;;;;;10.18;83.58;99922.75;5071044;28;20663;-75
2021/11/05 09:07:28;;;;;;;23.38;16.08;;;;;;;10.23;84.38;99928.78;5074774;28;20287;-74
2021/11/05 09:09:54;;;;;;;26.52;17.25;;;;;;;10.13;85.24;99932.91;5074546;28;20508;-75
2021/11/05 09:12:21;;;;;;;22.05;16.35;;;;;;;10.27;84.43;99939.41;5074790;28;20276;-74
2021/11/05 09:14:49;;;;;;;25.00;16.58;;;;;;;10.40;82.63;99935.13;5074230;28;20233;-73
2021/11/05 09:17:16;;;;;;;24.38;16.52;;;;;;;10.22;83.18;99945.00;5074617;28;20272;-73
2021/11/05 09:19:43;;;;;;;23.67;16.83;;;;;;;10.04;85.13;99949.50;5073053;28;20275;-74
2021/11/05 09:22:11;;;;;;;23.98;16.80;;;;;;;10.20;84.79;99955.84;5074517;28;20213;-73
2021/11/05 09:24:38;;;;;;;20.13;13.98;;;;;;;10.15;82.81;99954.31;5070256;28;20306;-74
2021/11/05 09:27:05;;;;;;;23.25;14.07;;;;;;;10.20;82.56;99958.53;5074406;28;20215;-74
2021/11/05 09:29:32;;;;;;;20.48;14.77;;;;;;;10.31;83.09;99957.13;5074827;28;20283;-73
2021/11/05 09:32:00;;;;;;;19.50;14.30;;;;;;;10.27;82.43;99966.31;5075027;28;20272;-73
2021/11/05 09:34:31;;;;;;;22.05;14.60;;;;;;;10.09;82.60;99974.38;5073762;28;20189;-73
2021/11/05 09:36:58;;;;;;;21.23;14.15;;;;;;;9.87;83.63;99976.38;5073802;28;20285;-74
2021/11/05 09:39:24;;;;;;;17.85;12.02;;;;;;;9.67;84.63;99982.72;5068616;28;20276;-73
2021/11/05 09:41:51;;;;;;;19.38;13.80;;;;;;;9.76;84.87;99980.44;5073740;28;20215;-73
2021/11/05 09:44:18;;;;;;;17.55;13.30;;;;;;;9.99;83.77;99989.19;5073792;28;20266;-73
2021/11/05 09:46:45;;;;;;;19.23;13.80;;;;;;;10.06;83.52;99987.94;5073646;28;20193;-73
2021/11/05 09:49:14;;;;;;;15.52;11.90;;;;;;;10.19;82.31;99997.16;5074165;28;20306;-74
2021/11/05 09:51:41;;;;;;;19.05;13.13;;;;;;;10.40;80.18;99995.25;5062327;28;20197;-73
2021/11/05 09:54:08;;;;;;;15.65;12.05;;;;;;;10.22;80.69;100007.78;5067149;28;20200;-75
2021/11/05 09:56:35;;;;;;;19.77;12.50;;;;;;;10.51;79.08;100004.56;5053800;28;20316;-73
2021/11/05 09:59:01;;;;;;;18.48;12.60;;;;;;;10.57;78.76;100006.97;5054318;28;20278;-72
2021/11/05 10:01:28;;;;;;;16.50;11.88;;;;;;;10.71;77.46;100009.81;5070636;28;20933;-73
2021/11/05 10:03:54;;;;;;;17.05;11.43;;;;;;;10.60;77.19;100010.34;5073859;28;20243;-73
2021/11/05 10:06:24;;;;;;;17.10;11.98;;;;;;;10.56;77.41;100021.34;5073642;28;20276;-73
2021/11/05 10:08:51;;;;;;;17.88;11.90;;;;;;;10.43;78.71;100026.53;5068623;28;20222;-73
2021/11/05 10:11:24;;;;;;;18.95;11.98;;;;;;;10.69;78.46;100021.59;5053432;28;20229;-74
2021/11/05 10:13:51;;;;;;;22.10;15.23;;;;;;;10.90;77.94;100020.50;5059246;28;20201;-74
2021/11/05 10:16:20;;;;;;;19.55;11.70;;;;;;;11.57;74.93;100021.34;5072268;28;20281;-73
2021/11/05 10:19:00;;;;;;;17.50;12.40;;;;;;;12.45;71.75;100021.78;5062628;28;20316;-72
2021/11/05 10:21:28;;;;;;;21.38;10.48;;;;;;;12.93;68.34;100023.38;5053530;28;20651;-73
2021/11/05 10:24:07;;;;;;;26.17;14.88;;;;;;;12.94;67.28;100024.22;5053840;28;20684;-74
2021/11/05 10:26:35;;;;;;;17.40;12.73;;;;;;;13.09;66.36;100023.31;5069812;28;20196;-72
2021/11/05 10:29:03;;;;;;;19.63;12.25;;;;;;;13.12;65.65;100028.50;5072808;28;20186;-73
2021/11/05 10:31:30;;;;;;;16.10;11.73;;;;;;;13.42;65.10;100026.72;5061612;28;20636;-72
2021/11/05 10:33:58;;;;;;;15.18;11.40;;;;;;;13.06;66.01;100025.31;5057178;28;20187;-72
2021/11/05 10:36:27;;;;;;;14.20;11.23;;;;;;;13.44;65.13;100028.34;5072521;28;20189;-72
2021/11/05 10:38:59;;;;;;;17.38;12.30;;;;;;;13.50;65.33;100022.56;5071180;28;20205;-73
2021/11/05 10:41:29;;;;;;;17.10;12.60;;;;;;;13.04;66.78;100033.50;5061900;28;20244;-74
2021/11/05 10:43:58;;;;;;;16.70;12.40;;;;;;;13.44;66.15;100033.75;5072967;28;20193;-74
2021/11/05 10:46:28;;;;;;;15.15;10.98;;;;;;;13.08;66.00;100026.09;5070919;28;20205;-73
2021/11/05 10:48:56;;;;;;;14.98;11.48;;;;;;;13.58;65.05;100029.31;5063390;28;20211;-72
2021/11/05 10:51:25;;;;;;;15.63;11.48;;;;;;;13.97;63.09;100032.16;5067642;28;20284;-73
2021/11/05 10:53:53;;;;;;;17.38;12.07;;;;;;;13.84;63.33;100027.63;5072390;28;20205;-73
2021/11/05 10:56:24;;;;;;;20.42;11.98;;;;;;;13.47;63.08;100030.84;5072448;28;20194;-74
2021/11/05 10:58:56;;;;;;;13.05;9.52;;;;;;;13.05;63.86;100037.97;5068050;28;20541;-73
2021/11/05 11:01:25;;;;;;;15.23;9.48;;;;;;;12.94;64.80;100035.03;5067452;28;20659;-73
2021/11/05 11:03:54;;;;;;;12.77;8.88;;;;;;;12.38;65.80;100037.47;5059186;28;20193;-72
2021/11/05 11:06:23;;;;;;;14.98;10.38;;;;;;;12.26;67.12;100043.59;5071448;28;20198;-72
2021/11/05 11:08:51;;;;;;;14.88;9.07;;;;;;;12.19;65.49;100037.69;5064255;28;20198;-73
2021/11/05 11:11:25;;;;;;;12.05;8.85;;;;;;;12.80;63.59;100040.41;5072607;28;20722;-75
2021/11/05 11:13:54;;;;;;;10.90;8.25;;;;;;;13.24;62.20;100040.38;5071888;28;20276;-73
2021/11/05 11:16:24;;;;;;;11.85;8.80;;;;;;;12.50;65.07;100041.28;5071748;28;20632;-74
2021/11/05 11:18:59;;;;;;;13.07;9.13;;;;;;;12.79;63.77;100052.19;5072895;28;20556;-74
2021/11/05 11:21:29;;;;;;;11.82;9.13;;;;;;;12.57;63.91;100045.34;5060058;28;20299;-73